Warnerville, NY (12187)

8:51 AM EDT on July 01, 2015 (GMT -0400)
Cobleskill Richmondville | | Change Station
CLOSE
Current Station
Personal Weather Station
Location: Richmondville, NY
Elevation: 965 ft
Nearby Weather Stations

Elev 965 ft 42.65 °N, 74.53 °W | Updated 9 seconds ago

Overcast
Overcast
66.0 °F
Feels Like 66.0 °F
N
0.0
Wind Variable Wind from WSW
Gusts 0.0 mph

Today
High -- | Low -- °F
--% Chance of Precip.
Yesterday
High -- | Low -- °F
Precip. -- in
5:23 AM 8:39 PM
Full, 100% visible
Pressure 29.73 in
Visibility 6.0 miles
Clouds Scattered Clouds 500 ft
Scattered Clouds 1200 ft
Overcast 11000 ft
Dew Point 66 °F
Humidity 100%
Rainfall 0.30 in
Snow Depth Not available.
UV 1 out of 12
Pollen 2.60 out of 12
Air Quality Not available.
Flu Activity Not available.
SPECI KALB 011232Z 17005KT 6SM -RA BR SCT005 SCT012 OVC110 20/18 A2973 RMK AO2 P0000 T02000183

More Conditions Fewer Conditions

Pressure 29.73 in
Visibility 6.0 miles
Clouds Scattered Clouds 500 ft
Scattered Clouds 1200 ft
Overcast 11000 ft
Dew Point 66 °F
Humidity 100%
Rainfall 0.30 in
Snow Depth Not available.
UV 1 out of 12
Pollen 2.60 out of 12
Air Quality Not available.
Flu Activity Not available.
SPECI KALB 011232Z 17005KT 6SM -RA BR SCT005 SCT012 OVC110 20/18 A2973 RMK AO2 P0000 T02000183

More Conditions Fewer Conditions

10-Day Weather Forecast

×

Almanac

Astronomy

Jul. 01, 2015 Rise Set
Actual Time
Civil Twilight
Nautical Twilight
Astronomical Twilight
Moon
Length of Visible Light
Length of Day
Tomorrow will be .
, % of the Moon is Illuminated

Today's Extremes

State Highs State Lows

Community

WunderPhotos

Upload Photos

1,834,187 photos uploaded!

WunderBlogs® & News

Nearby

Air Quality

  Air Quality AQ Index Pollutant
Not available.

Snow Depth

Station Depth Elevation

Earthquake Activity

City Distance Mag. Time & Date
Minimum magnitude displayed is 2.5.

Coastal Water Temperatures

Place Temperature

Stations

Nearby Weather Stations

Station Location Temp. Windchill Dew Point Humidity Wind Precip. Elev Updated Type